createdAt,value
2019-02-10T00:04:03.027Z,53.81
2019-02-10T00:09:58.044Z,53.06
2019-02-10T00:15:53.034Z,50.74
2019-02-10T00:21:48.052Z,54.32
2019-02-10T00:27:43.050Z,51.89
2019-02-10T00:33:38.054Z,52.05
2019-02-10T00:39:33.092Z,50.61
2019-02-10T00:45:28.046Z,48.23
2019-02-10T00:51:23.043Z,49.68
2019-02-10T00:57:18.067Z,63.56
2019-02-10T01:03:13.078Z,60.71
2019-02-10T01:09:08.076Z,59.15
2019-02-10T01:15:03.056Z,68.24
2019-02-10T01:20:58.068Z,62.33
2019-02-10T01:26:53.082Z,52.38
2019-02-10T01:32:48.073Z,45.63
2019-02-10T01:38:43.134Z,46.79
2019-02-10T01:44:38.079Z,41.25
2019-02-10T01:50:33.109Z,39.39
2019-02-10T01:56:28.153Z,43.05
2019-02-10T02:02:23.093Z,50.42
2019-02-10T02:08:18.102Z,46.66
2019-02-10T02:14:13.108Z,35.52
2019-02-10T02:20:08.114Z,41.25
2019-02-10T02:26:03.117Z,39.27
2019-02-10T02:31:58.111Z,37.38
2019-02-10T02:37:53.112Z,32.49
2019-02-10T02:43:48.173Z,36.5
2019-02-10T02:49:43.141Z,38.65
2019-02-10T02:55:38.133Z,37.58
2019-02-10T03:01:33.172Z,35.91
2019-02-10T03:07:28.133Z,34.84
2019-02-10T03:13:23.118Z,36.4
2019-02-10T03:19:18.131Z,34.66
2019-02-10T03:25:13.163Z,30.75
2019-02-10T03:31:08.160Z,33.49
2019-02-10T03:37:03.125Z,37.33
2019-02-10T03:42:58.156Z,37.53
2019-02-10T03:48:53.169Z,44.62
2019-02-10T03:54:48.165Z,55.13
2019-02-10T04:00:43.175Z,48.22
2019-02-10T04:06:38.158Z,46.66
2019-02-10T04:12:33.149Z,41.89
2019-02-10T04:18:28.192Z,41.72
2019-02-10T04:24:23.152Z,34.54
2019-02-10T04:30:18.183Z,31.98
2019-02-10T04:36:13.162Z,31.77
2019-02-10T04:42:08.179Z,29.71
2019-02-10T04:48:03.231Z,32.42
2019-02-10T04:53:58.179Z,39.72
2019-02-10T04:59:53.198Z,40.94
2019-02-10T05:05:48.213Z,40.24
2019-02-10T05:11:43.181Z,39.2
2019-02-10T05:17:38.226Z,39.87
2019-02-10T05:23:33.200Z,45.41
2019-02-10T05:29:28.200Z,42.21
2019-02-10T05:35:23.205Z,40.16
2019-02-10T05:41:18.198Z,42.19
2019-02-10T05:47:13.203Z,39.84
2019-02-10T05:53:08.221Z,40.78
2019-02-10T05:59:03.209Z,37.85
2019-02-10T06:04:58.200Z,39.58
2019-02-10T06:10:53.267Z,39.36
2019-02-10T06:16:48.222Z,45.5
2019-02-10T06:22:43.275Z,42.93
2019-02-10T06:28:38.234Z,42.33
2019-02-10T06:34:33.232Z,39.21
2019-02-10T06:40:28.231Z,38.35
2019-02-10T06:46:23.281Z,39.22
2019-02-10T06:52:18.264Z,32.53
2019-02-10T06:58:13.232Z,33.68
2019-02-10T07:04:08.245Z,36.42
2019-02-10T07:10:03.271Z,40.76
2019-02-10T07:15:58.301Z,44.64
2019-02-10T07:21:53.254Z,43.94
2019-02-10T07:27:48.267Z,43.62
2019-02-10T07:33:43.256Z,41.25
2019-02-10T07:39:38.274Z,36.82
2019-02-10T07:45:33.277Z,37.05
2019-02-10T07:51:28.301Z,43.19
2019-02-10T07:57:23.266Z,38.15
2019-02-10T08:03:18.298Z,36.96
2019-02-10T08:09:13.284Z,32.97
2019-02-10T08:15:08.283Z,33.58
2019-02-10T08:21:03.285Z,32.11
2019-02-10T08:26:58.282Z,34.27
2019-02-10T08:32:53.292Z,32.52
2019-02-10T08:38:54.364Z,29.75
2019-02-10T08:44:43.301Z,34.35
2019-02-10T08:50:38.294Z,40.28
2019-02-10T08:56:33.301Z,30.53
2019-02-10T09:02:28.330Z,28.36
2019-02-10T09:08:23.338Z,29.06
2019-02-10T09:14:18.308Z,29.66
2019-02-10T09:20:13.322Z,32.62
2019-02-10T09:26:08.345Z,28.66
2019-02-10T09:32:03.335Z,32.2
2019-02-10T09:37:58.341Z,32.8
2019-02-10T09:43:53.328Z,31.37
2019-02-10T09:49:48.336Z,31.66
2019-02-10T09:55:43.345Z,39.67
2019-02-10T10:01:38.389Z,60.32
2019-02-10T10:07:33.364Z,44.66
2019-02-10T10:13:28.346Z,31.82
2019-02-10T10:19:23.363Z,22.8
2019-02-10T10:25:18.352Z,26.25
2019-02-10T10:31:13.363Z,13.65
2019-02-10T10:37:08.418Z,13.95
2019-02-10T10:43:03.429Z,18.38
2019-02-10T10:48:58.396Z,31.62
2019-02-10T10:54:53.370Z,17.27
2019-02-10T11:00:48.366Z,17.24
2019-02-10T11:06:43.381Z,16.59
2019-02-10T11:12:38.376Z,17.8
2019-02-10T11:18:33.395Z,14.06
2019-02-10T11:24:28.807Z,13.25
2019-02-10T11:30:23.419Z,11.21
2019-02-10T11:36:18.415Z,8.6
2019-02-10T11:42:13.392Z,8.5
2019-02-10T11:48:08.397Z,19.59
2019-02-10T11:54:03.397Z,11.74
2019-02-10T11:59:58.412Z,8.03
2019-02-10T12:05:53.395Z,14.47
2019-02-10T12:11:48.415Z,18.8
2019-02-10T12:17:43.399Z,11.44
2019-02-10T12:23:38.408Z,13.52
2019-02-10T12:29:33.462Z,11.16
2019-02-10T12:35:28.550Z,9.86
2019-02-10T12:41:23.429Z,10.14
2019-02-10T12:47:18.422Z,10.13
2019-02-10T12:53:13.430Z,8.01
2019-02-10T12:59:08.440Z,6.89
2019-02-10T13:05:03.436Z,8.93
2019-02-10T13:10:58.436Z,6.26
2019-02-10T13:16:53.439Z,5.4
2019-02-10T13:22:48.435Z,5.1
2019-02-10T13:28:43.491Z,4.3
2019-02-10T13:34:38.462Z,3.82
2019-02-10T13:40:35.055Z,5.17
2019-02-10T13:46:28.488Z,5.21
2019-02-10T13:52:23.465Z,5.38
2019-02-10T13:58:18.458Z,7.49
2019-02-10T14:04:13.498Z,8.55
2019-02-10T14:10:08.492Z,6.94
2019-02-10T14:16:03.522Z,8.62
2019-02-10T14:21:58.454Z,3.86
2019-02-10T14:27:53.531Z,6.74
2019-02-10T14:33:48.545Z,5.14
2019-02-10T14:39:43.500Z,3.37
2019-02-10T14:45:38.496Z,3.87
2019-02-10T14:51:33.523Z,4.91
2019-02-10T14:57:28.539Z,7.29
2019-02-10T15:03:23.517Z,11.25
2019-02-10T15:09:18.519Z,8.26
2019-02-10T15:15:13.507Z,6.23
2019-02-10T15:21:08.523Z,4.32
2019-02-10T15:27:03.529Z,5.06
2019-02-10T15:32:58.527Z,3.39
2019-02-10T15:38:53.536Z,5.72
2019-02-10T15:44:48.532Z,9.23
2019-02-10T15:50:43.512Z,6.25
2019-02-10T15:56:38.516Z,5.77
2019-02-10T16:02:33.541Z,5.06
2019-02-10T16:08:28.537Z,5.3
2019-02-10T16:14:23.548Z,4.8
2019-02-10T16:20:18.550Z,4.24
2019-02-10T16:26:13.538Z,4.25
2019-02-10T16:32:08.543Z,7.24
2019-02-10T16:38:03.593Z,5.75
2019-02-10T16:43:58.528Z,4.17
2019-02-10T16:49:53.544Z,4.17
2019-02-10T16:55:48.541Z,4.88
2019-02-10T17:01:43.574Z,7.72
2019-02-10T17:07:38.578Z,5.03
2019-02-10T17:13:33.634Z,4.5
2019-02-10T17:19:28.578Z,4.47
2019-02-10T17:25:23.576Z,4.65
2019-02-10T17:31:18.577Z,4.4
2019-02-10T17:37:13.579Z,4.36
2019-02-10T17:43:08.578Z,5.41
2019-02-10T17:49:03.607Z,4.16
2019-02-10T17:54:58.642Z,4.65
2019-02-10T18:00:53.612Z,5.77
2019-02-10T18:06:48.650Z,9.88
2019-02-10T18:12:43.683Z,11.35
2019-02-10T18:18:38.610Z,5.15
2019-02-10T18:24:33.602Z,7.8
2019-02-10T18:30:28.602Z,4.63
2019-02-10T18:36:23.605Z,3.76
2019-02-10T18:42:20.905Z,4.35
2019-02-10T18:48:13.646Z,10.6
2019-02-10T18:54:08.625Z,12.4
2019-02-10T19:00:03.640Z,8.45
2019-02-10T19:05:58.633Z,6.22
2019-02-10T19:11:53.659Z,6.26
2019-02-10T19:17:48.633Z,6.3
2019-02-10T19:23:43.621Z,5.21
2019-02-10T19:29:38.634Z,5.83
2019-02-10T19:35:33.654Z,6.68
2019-02-10T19:41:28.664Z,4.61
2019-02-10T19:47:23.638Z,5.41
2019-02-10T19:53:18.642Z,5.31
2019-02-10T19:59:13.685Z,4.99
2019-02-10T20:05:08.661Z,4.87
2019-02-10T20:11:03.655Z,5.21
2019-02-10T20:16:58.657Z,3.85
2019-02-10T20:22:53.674Z,3.82
2019-02-10T20:28:48.657Z,5.13
2019-02-10T20:34:43.665Z,5.88
2019-02-10T20:40:38.669Z,5.95
2019-02-10T20:46:33.686Z,5.6
2019-02-10T20:52:28.686Z,5
2019-02-10T20:58:23.682Z,5.25
2019-02-10T21:04:18.689Z,5.25
2019-02-10T21:10:13.714Z,5.5
2019-02-10T21:16:08.688Z,6.16
2019-02-10T21:22:03.728Z,4.84
2019-02-10T21:27:58.711Z,4.31
2019-02-10T21:33:53.738Z,4.85
2019-02-10T21:39:48.770Z,4.88
2019-02-10T21:45:43.696Z,4.87
2019-02-10T21:51:38.749Z,5.73
2019-02-10T21:57:33.717Z,5.91
2019-02-10T22:03:28.772Z,6.87
2019-02-10T22:09:23.699Z,7.7
2019-02-10T22:15:18.726Z,6.55
2019-02-10T22:21:13.723Z,8.29
2019-02-10T22:27:08.734Z,5.82
2019-02-10T22:33:03.775Z,6.8
2019-02-10T22:38:58.733Z,5.5
2019-02-10T22:44:53.753Z,5.94
2019-02-10T22:50:48.735Z,5.92
2019-02-10T22:56:43.769Z,9.62
2019-02-10T23:02:38.750Z,7.14
2019-02-10T23:08:33.818Z,8.98
2019-02-10T23:14:28.785Z,7.28
2019-02-10T23:20:23.781Z,9.29
2019-02-10T23:26:18.745Z,6.09
2019-02-10T23:32:13.760Z,12.12
2019-02-10T23:38:08.808Z,7.57
2019-02-10T23:44:03.802Z,7.94
2019-02-10T23:49:58.795Z,10
2019-02-10T23:55:53.754Z,10.01
